Portada
METAR-TAF:

METAR-TAF

Aeroports :

Najaf, Iraq

latitud: 31-59-23N, longitud: 44-24-15E, altitud: 31 m

Observació

L'informe es va fer fa 46 minuts, a les 22:00 UTC
Vent calma
Temperatura 11°C
Humitat 94%
Pressió 1015 hPa
Visibilitat: 6000 m
Núvols disperses a una alçada de 4000 ft

METAR: ORNI 062200Z 00000KT 6000 SCT040 11/10 Q1015 NOSIG

Hora: 01:46 (22:46 UTC)

Pronòstic

L'informe es va fer fa 12 hores i 46 minuts, a les 10:00 UTC
Pronòstic vàlid del 06 a les 12 UTC al 07 a les 12 UTC
Vent 12 kt del Est/Sud-Est
Visibilitat: 6000 m
Cel ennuvolat a una alçada de 4000 ft
Evolucionant progressivament
l' 07 a les 02 UTC al 07 a les 12 UTC
Vent 10 kt del Oest
Visibilitat: 4000 m
Núvols disperses a una alçada de 3000 ft
Cel ennuvolat a una alçada de 5000 ft

TAF: ORNI 061000Z 0612/0712 12012KT 6000 BKN040 BECMG 0702/0712 28010KT 4000 SCT030 BKN050

Observacions i pronòstics meteorològics de més de 4000 aeroports (METAR i TAF).

Les estacions disponibles són els punts grocs i vermells al mapa.

Posi el ratolí al punt desitjat per veure el nom de l'estació.

Feu clic per veure les observacions i els pronòstics meteorològics.

Per canviar el mapa: feu clic els botons verds amb una creu de color negre per apropar; al botó verd amb un guió per allunyar la imatge; o en les fletxes verdes per a mapes adjacents.


METAR-TAF: